Margarita Frozen — MVHG8 — position and weather

sailwx.info

Track history (hours):
 
Tides and Currents Weather Stations Pressure Air Temp Water Temp Dewpoint Dewpoint Depression Visibility Wind Speed Wind Dir Waves Ship Positions

Margarita Frozen

Last reported at 2017-Sep-20 23:10 UTC. Time now 2017-Sep-21 10:41 UTC.
Position N 37°26' E 025°19'.

Length 28 m.

Type: Sailing vessel. MMSI: 235056811.

Date/timePositionNaut miles runAvg speedWind from/ knotsBaromVisibWave heightAir tempDewpointWater temp
2017-Sep-20 23:10N 37°26' E 025°19'0 0.0
2017-Sep-20 22:48N 37°26' E 025°19'0 0.0
2017-Sep-20 21:36N 37°26' E 025°19'0 0.0
2017-Sep-20 19:24N 37°26' E 025°19'0 0.0
2017-Sep-20 19:00N 37°26' E 025°19'0 0.0
2017-Sep-20 17:56N 37°26' E 025°19'0 0.0
2017-Sep-20 17:30N 37°26' E 025°19'0 0.0
2017-Sep-20 15:47N 37°26' E 025°19'0 0.0
2017-Sep-20 08:16N 37°26' E 025°19'0 0.0
2017-Sep-19 21:14N 37°26' E 025°19'0 0.0
2017-Sep-19 20:57N 37°26' E 025°19'0 0.0
2017-Sep-19 20:23N 37°26' E 025°19'0 0.0
2017-Sep-19 18:11N 37°26' E 025°19'0 0.0
2017-Sep-19 17:57N 37°26' E 025°19'0 0.0
2017-Sep-19 17:30N 37°26' E 025°19'0 0.0
2017-Sep-19 17:00N 37°26' E 025°19'0 0.0
2017-Sep-19 12:40N 37°26' E 025°19'1 7.2
2017-Sep-19 12:30N 37°27' E 025°18'2 2.0
2017-Sep-19 11:40N 37°25' E 025°19'0 0.0
2017-Sep-19 11:27N 37°25' E 025°19'0 0.0
2017-Sep-19 10:59N 37°25' E 025°19'0 0.0
2017-Sep-19 09:51N 37°25' E 025°19'0 0.0
2017-Sep-19 09:27N 37°25' E 025°19'0 0.1
2017-Sep-19 08:55N 37°25' E 025°18'3 8.3
2017-Sep-19 08:30N 37°27' E 025°15'7 0.8
2017-Sep-18 23:45N 37°32' E 025°10'0 0.0
2017-Sep-18 23:26N 37°32' E 025°10'1 0.1
2017-Sep-18 13:20N 37°32' E 025°10'1 1.2
2017-Sep-18 12:48N 37°32' E 025°11'4 6.3
2017-Sep-18 12:06N 37°28' E 025°13'1 8.2
2017-Sep-18 12:00N 37°27' E 025°14'4 7.7
2017-Sep-18 11:30N 37°23' E 025°16'0 0.4
2017-Sep-18 11:00N 37°24' E 025°16'0 0.0
2017-Sep-18 10:30N 37°24' E 025°16'0 0.0
2017-Sep-18 10:00N 37°24' E 025°16'6 5.4
2017-Sep-18 08:58N 37°18' E 025°15'4 7.9
2017-Sep-18 08:30N 37°14' E 025°15'4 7.7
2017-Sep-18 08:00N 37°10' E 025°14'3 0.1
2017-Sep-17 10:01N 37°08' E 025°14'0 8.7
2017-Sep-17 10:00N 37°08' E 025°14'1 1.6
2017-Sep-17 09:30N 37°09' E 025°14'0 0.0
2017-Sep-17 08:58N 37°09' E 025°14'7 5.6
2017-Sep-17 07:42N 37°05' E 025°06'2 8.3
2017-Sep-17 07:30N 37°03' E 025°06'1 1.7
2017-Sep-17 07:00N 37°02' E 025°05'0 0.0
2017-Sep-17 06:30N 37°02' E 025°05'0 0.0
2017-Sep-17 06:00N 37°02' E 025°05'0 0.0
2017-Sep-17 05:30N 37°02' E 025°05'0 0.0
2017-Sep-17 05:00N 37°02' E 025°05'0 0.0
2017-Sep-17 04:30N 37°02' E 025°05'0 0.0
2017-Sep-17 04:00N 37°02' E 025°05'0 0.0
2017-Sep-17 03:30N 37°02' E 025°05'0 0.0
2017-Sep-17 03:00N 37°02' E 025°05'0 0.0
2017-Sep-17 02:30N 37°02' E 025°05'0 0.0
2017-Sep-17 02:00N 37°02' E 025°05'0 0.0
2017-Sep-17 01:30N 37°02' E 025°05'0 0.0
2017-Sep-17 01:00N 37°02' E 025°05'0 0.0
2017-Sep-17 00:30N 37°02' E 025°05'0 0.0
2017-Sep-17 00:00N 37°02' E 025°05'0 0.0
2017-Sep-16 23:30N 37°02' E 025°05'0 0.0
2017-Sep-16 23:00N 37°02' E 025°05'0 0.0
2017-Sep-16 22:30N 37°02' E 025°05'0 0.0
2017-Sep-16 22:00N 37°02' E 025°05'0 0.0
2017-Sep-16 21:30N 37°02' E 025°05'0 0.0
2017-Sep-16 21:00N 37°02' E 025°05'0 0.0
2017-Sep-16 20:30N 37°02' E 025°05'0 0.0
2017-Sep-16 20:00N 37°02' E 025°05'0 0.0
2017-Sep-16 19:30N 37°02' E 025°05'0 0.0
2017-Sep-16 19:00N 37°02' E 025°05'0 0.0
2017-Sep-16 18:30N 37°02' E 025°05'0 0.0
2017-Sep-16 18:00N 37°02' E 025°05'0 0.0
2017-Sep-16 17:30N 37°02' E 025°05'0 0.0
2017-Sep-16 17:00N 37°02' E 025°05'0 0.0
2017-Sep-16 16:30N 37°02' E 025°05'0 0.0
2017-Sep-16 16:00N 37°02' E 025°05'0 0.0
2017-Sep-16 15:30N 37°02' E 025°05'0 0.0
2017-Sep-16 15:00N 37°02' E 025°05'0 0.0
2017-Sep-16 14:30N 37°02' E 025°05'0 0.0
2017-Sep-16 14:00N 37°02' E 025°05'0 0.0
2017-Sep-16 13:30N 37°02' E 025°05'0 0.0
2017-Sep-16 13:00N 37°02' E 025°05'0 0.0
2017-Sep-16 12:30N 37°02' E 025°05'0 0.0
2017-Sep-16 12:00N 37°02' E 025°05'0 0.0
2017-Sep-16 11:30N 37°02' E 025°05'0 0.0
2017-Sep-16 11:00N 37°02' E 025°05'0 0.0
2017-Sep-16 10:30N 37°02' E 025°05'0 0.0
2017-Sep-16 10:00N 37°02' E 025°05'0 0.0
2017-Sep-16 09:30N 37°02' E 025°05'0 0.0
2017-Sep-16 09:00N 37°02' E 025°05'0 0.0
2017-Sep-16 08:30N 37°02' E 025°05'0 0.0
2017-Sep-16 08:00N 37°02' E 025°05'0 0.0
2017-Sep-16 07:30N 37°02' E 025°05'0 0.0
2017-Sep-16 07:00N 37°02' E 025°05'0 0.0
2017-Sep-16 06:30N 37°02' E 025°05'0 0.0
2017-Sep-16 06:00N 37°02' E 025°05'0 0.0
2017-Sep-16 05:30N 37°02' E 025°05'0 0.0
2017-Sep-16 05:00N 37°02' E 025°05'0 0.0
2017-Sep-16 04:30N 37°02' E 025°05'0 0.0
2017-Sep-16 04:00N 37°02' E 025°05'0 0.0
2017-Sep-16 03:30N 37°02' E 025°05'0 0.0
2017-Sep-16 03:00N 37°02' E 025°05'0 0.0
2017-Sep-16 02:30N 37°02' E 025°05'0 0.0
2017-Sep-16 02:00N 37°02' E 025°05'0 0.0
2017-Sep-16 01:30N 37°02' E 025°05'0 0.0
2017-Sep-16 01:00N 37°02' E 025°05'0 0.0
2017-Sep-16 00:30N 37°02' E 025°05'0 0.0
2017-Sep-16 00:00N 37°02' E 025°05'0 0.0
2017-Sep-15 23:30N 37°02' E 025°05'0 0.0
2017-Sep-15 23:00N 37°02' E 025°05'0 0.0
2017-Sep-15 22:30N 37°02' E 025°05'0 0.0
2017-Sep-15 22:00N 37°02' E 025°05'0 0.0
2017-Sep-15 21:30N 37°02' E 025°05'0 0.0
2017-Sep-15 21:00N 37°02' E 025°05'0 0.0
2017-Sep-15 20:30N 37°02' E 025°05'0 0.0
2017-Sep-15 20:00N 37°02' E 025°05'0 0.0
2017-Sep-15 19:30N 37°02' E 025°05'0 0.0
2017-Sep-15 19:00N 37°02' E 025°05'0 0.0
2017-Sep-15 18:30N 37°02' E 025°05'0 0.0
2017-Sep-15 18:00N 37°02' E 025°05'0 0.0
2017-Sep-15 17:30N 37°02' E 025°05'0 0.0
2017-Sep-15 17:00N 37°02' E 025°05'0 0.0
2017-Sep-15 16:30N 37°02' E 025°05'0 0.0
2017-Sep-15 16:00N 37°02' E 025°05'0 0.0
2017-Sep-15 15:30N 37°02' E 025°05'0 0.0
2017-Sep-15 15:00N 37°02' E 025°05'0 0.0
2017-Sep-15 14:30N 37°02' E 025°05'0 0.0
2017-Sep-15 14:00N 37°02' E 025°05'0 0.0
2017-Sep-15 13:30N 37°02' E 025°05'0 0.0
2017-Sep-15 13:00N 37°02' E 025°05'0 0.0
2017-Sep-15 12:30N 37°02' E 025°05'0 0.0
2017-Sep-15 12:00N 37°02' E 025°05'0 0.0
2017-Sep-15 11:30N 37°02' E 025°05'0 0.0
2017-Sep-15 11:00N 37°02' E 025°05'0 0.0
2017-Sep-15 10:30N 37°02' E 025°05'0 0.0
2017-Sep-15 10:00N 37°02' E 025°05'0 0.3
2017-Sep-15 09:30N 37°02' E 025°05'0 0.0
2017-Sep-15 09:00N 37°02' E 025°05'1 2.7
2017-Sep-15 08:30N 37°03' E 025°06'9 8.0
2017-Sep-15 07:25N 37°09' E 025°14'0 1.1
2017-Sep-15 07:00N 37°09' E 025°14'0 0.0
2017-Sep-15 06:30N 37°09' E 025°14'0 0.0
2017-Sep-15 06:00N 37°09' E 025°14'0 0.0
2017-Sep-15 05:30N 37°09' E 025°14'0 0.0
2017-Sep-15 05:00N 37°09' E 025°14'0 0.0
2017-Sep-15 04:30N 37°09' E 025°14'0 0.0
2017-Sep-15 04:00N 37°09' E 025°14'0 0.0
2017-Sep-15 03:30N 37°09' E 025°14'0 0.0
2017-Sep-15 03:00N 37°09' E 025°14'0 0.0
2017-Sep-15 02:26N 37°09' E 025°14'0 0.0
2017-Sep-15 02:00N 37°09' E 025°14'0 0.0
2017-Sep-15 01:30N 37°09' E 025°14'0 0.0
2017-Sep-15 01:00N 37°09' E 025°14'0 0.0
2017-Sep-15 00:30N 37°09' E 025°14'0 0.0
2017-Sep-14 23:59N 37°09' E 025°14'0 0.0
2017-Sep-14 23:30N 37°09' E 025°14'0 0.0
2017-Sep-14 23:00N 37°09' E 025°14'0 0.0
2017-Sep-14 22:30N 37°09' E 025°14'0 0.0
2017-Sep-14 22:00N 37°09' E 025°14'0 0.0
2017-Sep-14 21:30N 37°09' E 025°14'0 0.0
2017-Sep-14 21:00N 37°09' E 025°14'0 0.0
2017-Sep-14 20:30N 37°09' E 025°14'0 0.0
2017-Sep-14 20:00N 37°09' E 025°14'0 0.0
2017-Sep-14 19:30N 37°09' E 025°14'0 0.0
2017-Sep-14 19:00N 37°09' E 025°14'0 0.0
2017-Sep-14 18:30N 37°09' E 025°14'0 0.0
2017-Sep-14 18:00N 37°09' E 025°14'0 0.0
2017-Sep-14 17:30N 37°09' E 025°14'0 0.0
2017-Sep-14 17:00N 37°09' E 025°14'0 0.0
2017-Sep-14 16:30N 37°09' E 025°14'0 0.0
2017-Sep-14 16:00N 37°09' E 025°14'0 0.0
2017-Sep-14 15:30N 37°09' E 025°14'0 0.0
2017-Sep-14 15:00N 37°09' E 025°14'0 0.0
2017-Sep-14 14:30N 37°09' E 025°14'0 0.0
2017-Sep-14 14:00N 37°09' E 025°14'0 0.0
2017-Sep-14 13:30N 37°09' E 025°14'0 0.0
2017-Sep-14 13:00N 37°09' E 025°14'0 0.0
2017-Sep-14 12:30N 37°09' E 025°14'0 0.0
2017-Sep-14 12:00N 37°09' E 025°14'0 0.0
2017-Sep-14 11:30N 37°09' E 025°14'0 0.0
2017-Sep-14 11:00N 37°09' E 025°14'0 0.0
2017-Sep-14 10:30N 37°09' E 025°14'0 0.0
2017-Sep-14 10:00N 37°09' E 025°14'0 0.9
2017-Sep-14 09:30N 37°09' E 025°14'5 9.3
2017-Sep-14 09:00N 37°13' E 025°16'5 9.2
2017-Sep-14 08:30N 37°18' E 025°17'5 9.2
2017-Sep-14 08:00N 37°22' E 025°19'3 6.0
2017-Sep-14 07:30N 37°25' E 025°19'0 0.0
2017-Sep-14 07:00N 37°25' E 025°19'0 0.0
2017-Sep-14 06:30N 37°25' E 025°19'0 0.0
2017-Sep-14 06:00N 37°25' E 025°19'0 0.0
2017-Sep-14 05:30N 37°25' E 025°19'0 0.0
2017-Sep-14 05:00N 37°25' E 025°19'0 0.0
2017-Sep-14 04:30N 37°25' E 025°19'0 0.0
2017-Sep-14 04:00N 37°25' E 025°19'0 0.0
2017-Sep-14 03:30N 37°25' E 025°19'0 0.0
2017-Sep-14 03:00N 37°25' E 025°19'0 0.0
2017-Sep-14 02:30N 37°25' E 025°19'0 0.0
2017-Sep-14 02:00N 37°25' E 025°19'0 0.0
2017-Sep-14 01:30N 37°25' E 025°19'0 0.0
2017-Sep-14 01:00N 37°25' E 025°19'0 0.0
2017-Sep-14 00:30N 37°25' E 025°19'0 0.0
2017-Sep-14 00:00N 37°25' E 025°19'0 0.0
2017-Sep-13 23:29N 37°25' E 025°19'0 0.0
2017-Sep-13 23:00N 37°25' E 025°19'0 0.0
2017-Sep-13 22:30N 37°25' E 025°19'0 0.0
2017-Sep-13 22:00N 37°25' E 025°19'0 0.0
2017-Sep-13 21:30N 37°25' E 025°19'0 0.0
2017-Sep-13 21:00N 37°25' E 025°19'0 0.0
2017-Sep-13 20:30N 37°25' E 025°19'0 0.0
2017-Sep-13 19:56N 37°25' E 025°19'0 0.0
2017-Sep-13 19:30N 37°25' E 025°19'0 0.0
2017-Sep-13 19:00N 37°25' E 025°19'0 0.0
2017-Sep-13 18:30N 37°25' E 025°19'0 0.0
2017-Sep-13 17:59N 37°25' E 025°19'0 0.0
2017-Sep-13 17:30N 37°25' E 025°19'0 0.0
2017-Sep-13 17:00N 37°25' E 025°19'0 0.0
2017-Sep-13 16:30N 37°25' E 025°19'0 0.0
2017-Sep-13 16:00N 37°25' E 025°19'0 0.0
2017-Sep-13 15:30N 37°25' E 025°19'0 0.0
2017-Sep-13 15:00N 37°25' E 025°19'0 0.0
2017-Sep-13 14:30N 37°25' E 025°19'0 0.0
2017-Sep-13 14:00N 37°25' E 025°19'0 0.0
2017-Sep-13 13:30N 37°25' E 025°19'1 1.8
2017-Sep-13 12:59N 37°25' E 025°18'2 2.5
2017-Sep-13 12:12N 37°27' E 025°19'0 0.0
2017-Sep-13 11:55N 37°27' E 025°19'0 0.0
2017-Sep-13 11:27N 37°27' E 025°19'0 0.0
2017-Sep-13 08:55N 37°27' E 025°19'0 0.0
2017-Sep-13 08:25N 37°27' E 025°19'0 0.0
2017-Sep-13 07:58N 37°27' E 025°19'0 0.0
2017-Sep-13 07:21N 37°27' E 025°19'0 0.0
2017-Sep-13 05:41N 37°27' E 025°19'0 0.0
2017-Sep-13 05:24N 37°27' E 025°19'0 0.0
2017-Sep-12 17:23N 37°27' E 025°19'0 0.0
2017-Sep-12 17:00N 37°27' E 025°19'0 0.0
2017-Sep-12 16:28N 37°27' E 025°19'0 0.0
2017-Sep-12 15:59N 37°27' E 025°19'0 0.0
2017-Sep-12 15:30N 37°27' E 025°19'0 0.0
2017-Sep-12 15:00N 37°27' E 025°19'0 0.0
2017-Sep-12 14:30N 37°27' E 025°19'0 0.0
2017-Sep-12 14:00N 37°27' E 025°19'0 0.0
2017-Sep-12 13:29N 37°27' E 025°19'8 5.2
2017-Sep-12 11:59N 37°19' E 025°17'4 8.0
2017-Sep-12 11:26N 37°15' E 025°15'4 8.3
2017-Sep-12 10:55N 37°11' E 025°15'  
Track history (hours):
 
Tides and Currents Weather Stations Pressure Air Temp Water Temp Dewpoint Dewpoint Depression Visibility Wind Speed Wind Dir Waves Ship Positions

Margarita Frozen

Last reported at 2017-Sep-20 23:10 UTC. Time now 2017-Sep-21 10:41 UTC.
Position N 37°26' E 025°19'.

Length 28 m.

Type: Sailing vessel. MMSI: 235056811.

Date/timePositionNaut miles runAvg speedWind from/ knotsBaromVisibWave heightAir tempDewpointWater temp
2017-Sep-20 23:10N 37°26' E 025°19'0 0.0
2017-Sep-20 22:48N 37°26' E 025°19'0 0.0
2017-Sep-20 21:36N 37°26' E 025°19'0 0.0
2017-Sep-20 19:24N 37°26' E 025°19'0 0.0
2017-Sep-20 19:00N 37°26' E 025°19'0 0.0
2017-Sep-20 17:56N 37°26' E 025°19'0 0.0
2017-Sep-20 17:30N 37°26' E 025°19'0 0.0
2017-Sep-20 15:47N 37°26' E 025°19'0 0.0
2017-Sep-20 08:16N 37°26' E 025°19'0 0.0
2017-Sep-19 21:14N 37°26' E 025°19'0 0.0
2017-Sep-19 20:57N 37°26' E 025°19'0 0.0
2017-Sep-19 20:23N 37°26' E 025°19'0 0.0
2017-Sep-19 18:11N 37°26' E 025°19'0 0.0
2017-Sep-19 17:57N 37°26' E 025°19'0 0.0
2017-Sep-19 17:30N 37°26' E 025°19'0 0.0
2017-Sep-19 17:00N 37°26' E 025°19'0 0.0
2017-Sep-19 12:40N 37°26' E 025°19'1 7.2
2017-Sep-19 12:30N 37°27' E 025°18'2 2.0
2017-Sep-19 11:40N 37°25' E 025°19'0 0.0
2017-Sep-19 11:27N 37°25' E 025°19'0 0.0
2017-Sep-19 10:59N 37°25' E 025°19'0 0.0
2017-Sep-19 09:51N 37°25' E 025°19'0 0.0
2017-Sep-19 09:27N 37°25' E 025°19'0 0.1
2017-Sep-19 08:55N 37°25' E 025°18'3 8.3
2017-Sep-19 08:30N 37°27' E 025°15'7 0.8
2017-Sep-18 23:45N 37°32' E 025°10'0 0.0
2017-Sep-18 23:26N 37°32' E 025°10'1 0.1
2017-Sep-18 13:20N 37°32' E 025°10'1 1.2
2017-Sep-18 12:48N 37°32' E 025°11'4 6.3
2017-Sep-18 12:06N 37°28' E 025°13'1 8.2
2017-Sep-18 12:00N 37°27' E 025°14'4 7.7
2017-Sep-18 11:30N 37°23' E 025°16'0 0.4
2017-Sep-18 11:00N 37°24' E 025°16'0 0.0
2017-Sep-18 10:30N 37°24' E 025°16'0 0.0
2017-Sep-18 10:00N 37°24' E 025°16'6 5.4
2017-Sep-18 08:58N 37°18' E 025°15'4 7.9
2017-Sep-18 08:30N 37°14' E 025°15'4 7.7
2017-Sep-18 08:00N 37°10' E 025°14'3 0.1
2017-Sep-17 10:01N 37°08' E 025°14'0 8.7
2017-Sep-17 10:00N 37°08' E 025°14'1 1.6
2017-Sep-17 09:30N 37°09' E 025°14'0 0.0
2017-Sep-17 08:58N 37°09' E 025°14'7 5.6
2017-Sep-17 07:42N 37°05' E 025°06'2 8.3
2017-Sep-17 07:30N 37°03' E 025°06'1 1.7
2017-Sep-17 07:00N 37°02' E 025°05'0 0.0
2017-Sep-17 06:30N 37°02' E 025°05'0 0.0
2017-Sep-17 06:00N 37°02' E 025°05'0 0.0
2017-Sep-17 05:30N 37°02' E 025°05'0 0.0
2017-Sep-17 05:00N 37°02' E 025°05'0 0.0
2017-Sep-17 04:30N 37°02' E 025°05'0 0.0
2017-Sep-17 04:00N 37°02' E 025°05'0 0.0
2017-Sep-17 03:30N 37°02' E 025°05'0 0.0
2017-Sep-17 03:00N 37°02' E 025°05'0 0.0
2017-Sep-17 02:30N 37°02' E 025°05'0 0.0
2017-Sep-17 02:00N 37°02' E 025°05'0 0.0
2017-Sep-17 01:30N 37°02' E 025°05'0 0.0
2017-Sep-17 01:00N 37°02' E 025°05'0 0.0
2017-Sep-17 00:30N 37°02' E 025°05'0 0.0
2017-Sep-17 00:00N 37°02' E 025°05'0 0.0
2017-Sep-16 23:30N 37°02' E 025°05'0 0.0
2017-Sep-16 23:00N 37°02' E 025°05'0 0.0
2017-Sep-16 22:30N 37°02' E 025°05'0 0.0
2017-Sep-16 22:00N 37°02' E 025°05'0 0.0
2017-Sep-16 21:30N 37°02' E 025°05'0 0.0
2017-Sep-16 21:00N 37°02' E 025°05'0 0.0
2017-Sep-16 20:30N 37°02' E 025°05'0 0.0
2017-Sep-16 20:00N 37°02' E 025°05'0 0.0
2017-Sep-16 19:30N 37°02' E 025°05'0 0.0
2017-Sep-16 19:00N 37°02' E 025°05'0 0.0
2017-Sep-16 18:30N 37°02' E 025°05'0 0.0
2017-Sep-16 18:00N 37°02' E 025°05'0 0.0
2017-Sep-16 17:30N 37°02' E 025°05'0 0.0
2017-Sep-16 17:00N 37°02' E 025°05'0 0.0
2017-Sep-16 16:30N 37°02' E 025°05'0 0.0
2017-Sep-16 16:00N 37°02' E 025°05'0 0.0
2017-Sep-16 15:30N 37°02' E 025°05'0 0.0
2017-Sep-16 15:00N 37°02' E 025°05'0 0.0
2017-Sep-16 14:30N 37°02' E 025°05'0 0.0
2017-Sep-16 14:00N 37°02' E 025°05'0 0.0
2017-Sep-16 13:30N 37°02' E 025°05'0 0.0
2017-Sep-16 13:00N 37°02' E 025°05'0 0.0
2017-Sep-16 12:30N 37°02' E 025°05'0 0.0
2017-Sep-16 12:00N 37°02' E 025°05'0 0.0
2017-Sep-16 11:30N 37°02' E 025°05'0 0.0
2017-Sep-16 11:00N 37°02' E 025°05'0 0.0
2017-Sep-16 10:30N 37°02' E 025°05'0 0.0
2017-Sep-16 10:00N 37°02' E 025°05'0 0.0
2017-Sep-16 09:30N 37°02' E 025°05'0 0.0
2017-Sep-16 09:00N 37°02' E 025°05'0 0.0
2017-Sep-16 08:30N 37°02' E 025°05'0 0.0
2017-Sep-16 08:00N 37°02' E 025°05'0 0.0
2017-Sep-16 07:30N 37°02' E 025°05'0 0.0
2017-Sep-16 07:00N 37°02' E 025°05'0 0.0
2017-Sep-16 06:30N 37°02' E 025°05'0 0.0
2017-Sep-16 06:00N 37°02' E 025°05'0 0.0
2017-Sep-16 05:30N 37°02' E 025°05'0 0.0
2017-Sep-16 05:00N 37°02' E 025°05'0 0.0
2017-Sep-16 04:30N 37°02' E 025°05'0 0.0
2017-Sep-16 04:00N 37°02' E 025°05'0 0.0
2017-Sep-16 03:30N 37°02' E 025°05'0 0.0
2017-Sep-16 03:00N 37°02' E 025°05'0 0.0
2017-Sep-16 02:30N 37°02' E 025°05'0 0.0
2017-Sep-16 02:00N 37°02' E 025°05'0 0.0
2017-Sep-16 01:30N 37°02' E 025°05'0 0.0
2017-Sep-16 01:00N 37°02' E 025°05'0 0.0
2017-Sep-16 00:30N 37°02' E 025°05'0 0.0
2017-Sep-16 00:00N 37°02' E 025°05'0 0.0
2017-Sep-15 23:30N 37°02' E 025°05'0 0.0
2017-Sep-15 23:00N 37°02' E 025°05'0 0.0
2017-Sep-15 22:30N 37°02' E 025°05'0 0.0
2017-Sep-15 22:00N 37°02' E 025°05'0 0.0
2017-Sep-15 21:30N 37°02' E 025°05'0 0.0
2017-Sep-15 21:00N 37°02' E 025°05'0 0.0
2017-Sep-15 20:30N 37°02' E 025°05'0 0.0
2017-Sep-15 20:00N 37°02' E 025°05'0 0.0
2017-Sep-15 19:30N 37°02' E 025°05'0 0.0
2017-Sep-15 19:00N 37°02' E 025°05'0 0.0
2017-Sep-15 18:30N 37°02' E 025°05'0 0.0
2017-Sep-15 18:00N 37°02' E 025°05'0 0.0
2017-Sep-15 17:30N 37°02' E 025°05'0 0.0
2017-Sep-15 17:00N 37°02' E 025°05'0 0.0
2017-Sep-15 16:30N 37°02' E 025°05'0 0.0
2017-Sep-15 16:00N 37°02' E 025°05'0 0.0
2017-Sep-15 15:30N 37°02' E 025°05'0 0.0
2017-Sep-15 15:00N 37°02' E 025°05'0 0.0
2017-Sep-15 14:30N 37°02' E 025°05'0 0.0
2017-Sep-15 14:00N 37°02' E 025°05'0 0.0
2017-Sep-15 13:30N 37°02' E 025°05'0 0.0
2017-Sep-15 13:00N 37°02' E 025°05'0 0.0
2017-Sep-15 12:30N 37°02' E 025°05'0 0.0
2017-Sep-15 12:00N 37°02' E 025°05'0 0.0
2017-Sep-15 11:30N 37°02' E 025°05'0 0.0
2017-Sep-15 11:00N 37°02' E 025°05'0 0.0
2017-Sep-15 10:30N 37°02' E 025°05'0 0.0
2017-Sep-15 10:00N 37°02' E 025°05'0 0.3
2017-Sep-15 09:30N 37°02' E 025°05'0 0.0
2017-Sep-15 09:00N 37°02' E 025°05'1 2.7
2017-Sep-15 08:30N 37°03' E 025°06'9 8.0
2017-Sep-15 07:25N 37°09' E 025°14'0 1.1
2017-Sep-15 07:00N 37°09' E 025°14'0 0.0
2017-Sep-15 06:30N 37°09' E 025°14'0 0.0
2017-Sep-15 06:00N 37°09' E 025°14'0 0.0
2017-Sep-15 05:30N 37°09' E 025°14'0 0.0
2017-Sep-15 05:00N 37°09' E 025°14'0 0.0
2017-Sep-15 04:30N 37°09' E 025°14'0 0.0
2017-Sep-15 04:00N 37°09' E 025°14'0 0.0
2017-Sep-15 03:30N 37°09' E 025°14'0 0.0
2017-Sep-15 03:00N 37°09' E 025°14'0 0.0
2017-Sep-15 02:26N 37°09' E 025°14'0 0.0
2017-Sep-15 02:00N 37°09' E 025°14'0 0.0
2017-Sep-15 01:30N 37°09' E 025°14'0 0.0
2017-Sep-15 01:00N 37°09' E 025°14'0 0.0
2017-Sep-15 00:30N 37°09' E 025°14'0 0.0
2017-Sep-14 23:59N 37°09' E 025°14'0 0.0
2017-Sep-14 23:30N 37°09' E 025°14'0 0.0
2017-Sep-14 23:00N 37°09' E 025°14'0 0.0
2017-Sep-14 22:30N 37°09' E 025°14'0 0.0
2017-Sep-14 22:00N 37°09' E 025°14'0 0.0
2017-Sep-14 21:30N 37°09' E 025°14'0 0.0
2017-Sep-14 21:00N 37°09' E 025°14'0 0.0
2017-Sep-14 20:30N 37°09' E 025°14'0 0.0
2017-Sep-14 20:00N 37°09' E 025°14'0 0.0
2017-Sep-14 19:30N 37°09' E 025°14'0 0.0
2017-Sep-14 19:00N 37°09' E 025°14'0 0.0
2017-Sep-14 18:30N 37°09' E 025°14'0 0.0
2017-Sep-14 18:00N 37°09' E 025°14'0 0.0
2017-Sep-14 17:30N 37°09' E 025°14'0 0.0
2017-Sep-14 17:00N 37°09' E 025°14'0 0.0
2017-Sep-14 16:30N 37°09' E 025°14'0 0.0
2017-Sep-14 16:00N 37°09' E 025°14'0 0.0
2017-Sep-14 15:30N 37°09' E 025°14'0 0.0
2017-Sep-14 15:00N 37°09' E 025°14'0 0.0
2017-Sep-14 14:30N 37°09' E 025°14'0 0.0
2017-Sep-14 14:00N 37°09' E 025°14'0 0.0
2017-Sep-14 13:30N 37°09' E 025°14'0 0.0
2017-Sep-14 13:00N 37°09' E 025°14'0 0.0
2017-Sep-14 12:30N 37°09' E 025°14'0 0.0
2017-Sep-14 12:00N 37°09' E 025°14'0 0.0
2017-Sep-14 11:30N 37°09' E 025°14'0 0.0
2017-Sep-14 11:00N 37°09' E 025°14'0 0.0
2017-Sep-14 10:30N 37°09' E 025°14'0 0.0
2017-Sep-14 10:00N 37°09' E 025°14'0 0.9
2017-Sep-14 09:30N 37°09' E 025°14'5 9.3
2017-Sep-14 09:00N 37°13' E 025°16'5 9.2
2017-Sep-14 08:30N 37°18' E 025°17'5 9.2
2017-Sep-14 08:00N 37°22' E 025°19'3 6.0
2017-Sep-14 07:30N 37°25' E 025°19'0 0.0
2017-Sep-14 07:00N 37°25' E 025°19'0 0.0
2017-Sep-14 06:30N 37°25' E 025°19'0 0.0
2017-Sep-14 06:00N 37°25' E 025°19'0 0.0
2017-Sep-14 05:30N 37°25' E 025°19'0 0.0
2017-Sep-14 05:00N 37°25' E 025°19'0 0.0
2017-Sep-14 04:30N 37°25' E 025°19'0 0.0
2017-Sep-14 04:00N 37°25' E 025°19'0 0.0
2017-Sep-14 03:30N 37°25' E 025°19'0 0.0
2017-Sep-14 03:00N 37°25' E 025°19'0 0.0
2017-Sep-14 02:30N 37°25' E 025°19'0 0.0
2017-Sep-14 02:00N 37°25' E 025°19'0 0.0
2017-Sep-14 01:30N 37°25' E 025°19'0 0.0
2017-Sep-14 01:00N 37°25' E 025°19'0 0.0
2017-Sep-14 00:30N 37°25' E 025°19'0 0.0
2017-Sep-14 00:00N 37°25' E 025°19'0 0.0
2017-Sep-13 23:29N 37°25' E 025°19'0 0.0
2017-Sep-13 23:00N 37°25' E 025°19'0 0.0
2017-Sep-13 22:30N 37°25' E 025°19'0 0.0
2017-Sep-13 22:00N 37°25' E 025°19'0 0.0
2017-Sep-13 21:30N 37°25' E 025°19'0 0.0
2017-Sep-13 21:00N 37°25' E 025°19'0 0.0
2017-Sep-13 20:30N 37°25' E 025°19'0 0.0
2017-Sep-13 19:56N 37°25' E 025°19'0 0.0
2017-Sep-13 19:30N 37°25' E 025°19'0 0.0
2017-Sep-13 19:00N 37°25' E 025°19'0 0.0
2017-Sep-13 18:30N 37°25' E 025°19'0 0.0
2017-Sep-13 17:59N 37°25' E 025°19'0 0.0
2017-Sep-13 17:30N 37°25' E 025°19'0 0.0
2017-Sep-13 17:00N 37°25' E 025°19'0 0.0
2017-Sep-13 16:30N 37°25' E 025°19'0 0.0
2017-Sep-13 16:00N 37°25' E 025°19'0 0.0
2017-Sep-13 15:30N 37°25' E 025°19'0 0.0
2017-Sep-13 15:00N 37°25' E 025°19'0 0.0
2017-Sep-13 14:30N 37°25' E 025°19'0 0.0
2017-Sep-13 14:00N 37°25' E 025°19'0 0.0
2017-Sep-13 13:30N 37°25' E 025°19'1 1.8
2017-Sep-13 12:59N 37°25' E 025°18'2 2.5
2017-Sep-13 12:12N 37°27' E 025°19'0 0.0
2017-Sep-13 11:55N 37°27' E 025°19'0 0.0
2017-Sep-13 11:27N 37°27' E 025°19'0 0.0
2017-Sep-13 08:55N 37°27' E 025°19'0 0.0
2017-Sep-13 08:25N 37°27' E 025°19'0 0.0
2017-Sep-13 07:58N 37°27' E 025°19'0 0.0
2017-Sep-13 07:21N 37°27' E 025°19'0 0.0
2017-Sep-13 05:41N 37°27' E 025°19'0 0.0
2017-Sep-13 05:24N 37°27' E 025°19'0 0.0
2017-Sep-12 17:23N 37°27' E 025°19'0 0.0
2017-Sep-12 17:00N 37°27' E 025°19'0 0.0
2017-Sep-12 16:28N 37°27' E 025°19'0 0.0
2017-Sep-12 15:59N 37°27' E 025°19'0 0.0
2017-Sep-12 15:30N 37°27' E 025°19'0 0.0
2017-Sep-12 15:00N 37°27' E 025°19'0 0.0
2017-Sep-12 14:30N 37°27' E 025°19'0 0.0
2017-Sep-12 14:00N 37°27' E 025°19'0 0.0
2017-Sep-12 13:29N 37°27' E 025°19'8 5.2
2017-Sep-12 11:59N 37°19' E 025°17'4 8.0
2017-Sep-12 11:26N 37°15' E 025°15'4 8.3
2017-Sep-12 10:55N 37°11' E 025°15'  

Dump ship's entire track history